createdAt,value
2019-02-06T00:02:21.557Z,35.83
2019-02-06T00:07:24.294Z,33.30
2019-02-06T00:12:25.854Z,34.53
2019-02-06T00:17:27.380Z,32.37
2019-02-06T00:22:28.838Z,30.03
2019-02-06T00:27:30.281Z,31.73
2019-02-06T00:32:31.817Z,29.27
2019-02-06T00:37:37.419Z,26.10
2019-02-06T00:42:39.281Z,30.97
2019-02-06T00:48:11.035Z,33.50
2019-02-06T00:53:12.518Z,30.40
2019-02-06T00:58:13.969Z,33.63
2019-02-06T01:03:16.108Z,34.50
2019-02-06T01:08:17.846Z,35.30
2019-02-06T01:13:19.473Z,35.70
2019-02-06T01:18:21.273Z,39.23
2019-02-06T01:23:22.823Z,36.00
2019-02-06T01:28:24.466Z,32.93
2019-02-06T01:33:26.105Z,39.73
2019-02-06T01:38:27.539Z,39.83
2019-02-06T01:43:28.963Z,38.73
2019-02-06T01:48:30.441Z,39.30
2019-02-06T01:53:32.176Z,38.53
2019-02-06T01:58:33.998Z,44.90
2019-02-06T02:03:35.425Z,40.27
2019-02-06T02:08:38.875Z,40.00
2019-02-06T02:13:40.514Z,39.53
2019-02-06T02:18:42.057Z,41.53
2019-02-06T02:23:43.549Z,43.50
2019-02-06T02:28:44.985Z,40.27
2019-02-06T02:33:46.517Z,44.37
2019-02-06T02:38:48.451Z,40.80
2019-02-06T02:43:49.898Z,39.13
2019-02-06T02:48:51.426Z,33.87
2019-02-06T02:53:53.095Z,32.97
2019-02-06T02:58:54.549Z,32.43
2019-02-06T03:04:00.628Z,32.73
2019-02-06T03:09:07.752Z,38.10
2019-02-06T03:14:09.688Z,38.57
2019-02-06T03:19:11.122Z,34.20
2019-02-06T03:24:12.610Z,33.50
2019-02-06T03:29:14.045Z,32.67
2019-02-06T03:34:15.513Z,32.87
2019-02-06T03:39:16.945Z,36.53
2019-02-06T03:44:18.505Z,33.13
2019-02-06T03:49:20.067Z,34.20
2019-02-06T03:54:21.794Z,30.30
2019-02-06T03:59:23.565Z,33.70
2019-02-06T04:04:25.110Z,28.83
2019-02-06T04:09:26.547Z,29.17
2019-02-06T04:14:28.064Z,29.93
2019-02-06T04:19:29.545Z,29.90
2019-02-06T04:24:30.957Z,31.57
2019-02-06T04:29:32.434Z,34.50
2019-02-06T04:34:33.861Z,37.20
2019-02-06T04:39:35.800Z,59.87
2019-02-06T04:44:37.232Z,61.20
2019-02-06T04:49:38.733Z,44.17
2019-02-06T04:54:40.218Z,43.43
2019-02-06T04:59:42.801Z,39.30
2019-02-06T05:04:44.319Z,41.03
2019-02-06T05:09:45.758Z,35.90
2019-02-06T05:14:47.219Z,34.47
2019-02-06T05:19:48.683Z,36.30
2019-02-06T05:24:50.222Z,38.30
2019-02-06T05:29:51.888Z,34.83
2019-02-06T05:34:53.748Z,33.20
2019-02-06T05:39:55.416Z,34.37
2019-02-06T05:44:56.952Z,30.37
2019-02-06T05:49:58.483Z,29.63
2019-02-06T05:55:00.888Z,28.97
2019-02-06T06:00:12.258Z,29.53
2019-02-06T06:05:13.919Z,26.87
2019-02-06T06:10:17.705Z,27.33
2019-02-06T06:15:20.032Z,28.03
2019-02-06T06:20:21.634Z,28.77
2019-02-06T06:25:23.179Z,28.67
2019-02-06T06:30:24.854Z,28.07
2019-02-06T06:35:26.489Z,26.97
2019-02-06T06:40:28.030Z,26.10
2019-02-06T06:45:29.480Z,28.37
2019-02-06T06:50:31.169Z,26.13
2019-02-06T06:55:35.059Z,29.20
2019-02-06T07:00:36.209Z,29.30
2019-02-06T07:05:37.743Z,28.43
2019-02-06T07:10:39.571Z,30.77
2019-02-06T07:15:41.283Z,34.07
2019-02-06T07:20:42.753Z,35.30
2019-02-06T07:25:44.333Z,40.10
2019-02-06T07:30:45.863Z,40.50
2019-02-06T07:35:47.393Z,41.27
2019-02-06T07:40:48.839Z,42.23
2019-02-06T07:45:50.315Z,41.07
2019-02-06T07:50:52.157Z,36.63
2019-02-06T07:55:53.831Z,36.63
2019-02-06T08:00:55.287Z,37.47
2019-02-06T08:05:56.785Z,38.33
2019-02-06T08:10:58.322Z,47.10
2019-02-06T08:15:59.851Z,53.10
2019-02-06T08:21:01.438Z,65.83
2019-02-06T08:26:03.196Z,50.27
2019-02-06T08:31:05.150Z,42.00
2019-02-06T08:36:06.714Z,45.47
2019-02-06T08:41:08.384Z,42.13
2019-02-06T08:46:10.250Z,45.13
2019-02-06T08:51:11.780Z,44.23
2019-02-06T08:56:13.532Z,43.87
2019-02-06T09:01:15.368Z,34.20
2019-02-06T09:06:16.964Z,33.83
2019-02-06T09:11:18.609Z,34.43
2019-02-06T09:16:20.225Z,33.33
2019-02-06T09:21:21.673Z,30.37
2019-02-06T09:26:23.781Z,35.77
2019-02-06T09:31:25.255Z,37.03
2019-02-06T09:36:26.829Z,30.00
2019-02-06T09:41:28.404Z,25.93
2019-02-06T09:46:29.933Z,36.97
2019-02-06T09:51:31.433Z,30.40
2019-02-06T09:56:32.942Z,24.93
2019-02-06T10:01:34.605Z,17.17
2019-02-06T10:06:36.098Z,15.23
2019-02-06T10:11:37.720Z,33.50
2019-02-06T10:16:39.232Z,12.30
2019-02-06T10:21:41.074Z,19.57
2019-02-06T10:26:42.504Z,10.97
2019-02-06T10:31:44.049Z,11.37
2019-02-06T10:36:45.663Z,15.10
2019-02-06T10:41:47.187Z,13.87
2019-02-06T10:46:48.656Z,13.53
2019-02-06T10:51:50.262Z,13.30
2019-02-06T10:56:51.737Z,16.03
2019-02-06T11:01:53.409Z,11.60
2019-02-06T11:06:55.054Z,12.10
2019-02-06T11:11:56.495Z,15.43
2019-02-06T11:16:58.267Z,11.73
2019-02-06T11:21:59.810Z,8.23
2019-02-06T11:27:02.750Z,7.53
2019-02-06T11:32:04.528Z,9.27
2019-02-06T11:37:06.256Z,8.70
2019-02-06T11:42:07.956Z,11.30
2019-02-06T11:47:09.406Z,8.93
2019-02-06T11:52:10.841Z,8.00
2019-02-06T11:57:12.832Z,7.47
2019-02-06T12:02:15.731Z,6.30
2019-02-06T12:07:17.267Z,6.93
2019-02-06T12:12:18.705Z,5.87
2019-02-06T12:17:20.140Z,7.37
2019-02-06T12:22:21.679Z,6.40
2019-02-06T12:27:23.413Z,6.73
2019-02-06T12:32:25.002Z,5.60
2019-02-06T12:37:26.542Z,6.50
2019-02-06T12:42:27.972Z,5.87
2019-02-06T12:47:29.410Z,5.70
2019-02-06T12:52:30.854Z,6.07
2019-02-06T12:57:36.982Z,6.77
2019-02-06T13:02:35.942Z,19.67
2019-02-06T13:07:37.652Z,7.37
2019-02-06T13:12:39.194Z,13.93
2019-02-06T13:17:41.020Z,10.23
2019-02-06T13:22:43.054Z,8.40
2019-02-06T13:27:44.696Z,7.17
2019-02-06T13:32:46.328Z,7.43
2019-02-06T13:37:47.931Z,10.57
2019-02-06T13:42:52.475Z,10.07
2019-02-06T13:47:54.208Z,11.40
2019-02-06T13:52:56.045Z,8.50
2019-02-06T13:57:57.717Z,9.30
2019-02-06T14:02:59.860Z,8.60
2019-02-06T14:08:08.334Z,9.53
2019-02-06T14:13:10.269Z,9.13
2019-02-06T14:18:11.920Z,8.67
2019-02-06T14:23:24.933Z,9.47
2019-02-06T14:28:52.854Z,8.33
2019-02-06T14:34:21.260Z,10.27
2019-02-06T14:39:34.372Z,10.90
2019-02-06T14:45:17.999Z,13.10
2019-02-06T14:50:37.230Z,14.03
2019-02-06T14:56:15.867Z,26.30
2019-02-06T15:01:31.685Z,25.03
2019-02-06T15:07:13.125Z,19.10
2019-02-06T15:12:55.724Z,24.40
2019-02-06T15:18:37.468Z,71.67
2019-02-06T15:24:08.990Z,81.67
2019-02-06T15:29:50.322Z,74.73
2019-02-06T15:35:29.872Z,40.40
2019-02-06T15:40:46.345Z,81.33
2019-02-06T15:46:31.394Z,101.37
2019-02-06T15:51:49.567Z,122.60
2019-02-06T15:57:16.336Z,63.40
2019-02-06T16:02:32.352Z,61.17
2019-02-06T16:08:02.109Z,49.20
2019-02-06T16:13:21.600Z,23.57
2019-02-06T16:18:34.253Z,18.17
2019-02-06T16:23:59.834Z,15.63
2019-02-06T16:29:59.823Z,15.67
2019-02-06T16:35:21.808Z,17.83
2019-02-06T16:40:49.142Z,23.90
2019-02-06T16:46:30.091Z,40.30
2019-02-06T16:51:42.360Z,71.30
2019-02-06T16:56:57.873Z,68.57
2019-02-06T17:02:10.878Z,84.40
2019-02-06T17:07:36.106Z,75.27
2019-02-06T17:13:18.039Z,80.50
2019-02-06T17:19:09.030Z,81.33
2019-02-06T17:24:25.201Z,74.53
2019-02-06T17:30:14.536Z,95.00
2019-02-06T17:35:36.718Z,68.63
2019-02-06T17:40:49.583Z,111.80
2019-02-06T17:45:56.739Z,95.53
2019-02-06T17:51:09.946Z,85.57
2019-02-06T17:56:11.579Z,112.37
2019-02-06T18:01:18.538Z,159.07
2019-02-06T18:06:19.978Z,150.60
2019-02-06T18:11:21.550Z,104.90
2019-02-06T18:16:24.004Z,100.33
2019-02-06T18:21:25.497Z,105.73
2019-02-06T18:26:27.052Z,79.73
2019-02-06T18:31:28.590Z,49.57
2019-02-06T18:36:30.035Z,193.50
2019-02-06T18:41:31.799Z,75.20
2019-02-06T18:46:33.636Z,58.13
2019-02-06T18:51:35.338Z,67.03
2019-02-06T18:56:37.117Z,43.40
2019-02-06T19:01:39.238Z,50.03
2019-02-06T19:06:41.169Z,277.53
2019-02-06T19:11:43.397Z,72.10
2019-02-06T19:16:44.934Z,53.33
2019-02-06T19:21:47.521Z,58.97
2019-02-06T19:26:49.064Z,86.40
2019-02-06T19:31:50.530Z,84.33
2019-02-06T19:36:51.951Z,184.97
2019-02-06T19:41:54.486Z,87.70
2019-02-06T19:46:56.056Z,80.70
2019-02-06T19:51:57.605Z,73.23
2019-02-06T19:56:59.446Z,83.17
2019-02-06T20:02:01.306Z,100.23
2019-02-06T20:07:04.840Z,199.20
2019-02-06T20:12:06.592Z,88.60
2019-02-06T20:17:08.055Z,99.33
2019-02-06T20:22:09.757Z,101.20
2019-02-06T20:27:12.334Z,102.13
2019-02-06T20:32:13.774Z,80.87
2019-02-06T20:37:15.782Z,92.93
2019-02-06T20:42:17.333Z,93.60
2019-02-06T20:47:18.778Z,81.13
2019-02-06T20:52:20.279Z,89.27
2019-02-06T20:57:21.710Z,73.13
2019-02-06T21:02:23.252Z,98.33
2019-02-06T21:07:24.787Z,84.07
2019-02-06T21:12:26.259Z,56.17
2019-02-06T21:17:28.119Z,54.83
2019-02-06T21:22:29.622Z,32.30
2019-02-06T21:27:31.058Z,51.63
2019-02-06T21:32:32.492Z,34.17
2019-02-06T21:37:33.970Z,28.80
2019-02-06T21:42:35.812Z,28.10
2019-02-06T21:47:37.741Z,34.27
2019-02-06T21:52:40.433Z,25.60
2019-02-06T21:57:43.510Z,26.60
2019-02-06T22:02:45.429Z,31.67
2019-02-06T22:07:46.979Z,40.20
2019-02-06T22:12:48.561Z,31.10
2019-02-06T22:17:50.091Z,28.43
2019-02-06T22:22:51.661Z,30.63
2019-02-06T22:27:53.174Z,29.97
2019-02-06T22:32:55.009Z,34.70
2019-02-06T22:37:57.043Z,30.37
2019-02-06T22:42:58.499Z,30.57
2019-02-06T22:47:59.939Z,36.23
2019-02-06T22:53:01.418Z,35.27
2019-02-06T22:58:04.210Z,53.73
2019-02-06T23:03:06.395Z,46.27
2019-02-06T23:08:08.086Z,59.33
2019-02-06T23:13:10.822Z,38.10
2019-02-06T23:18:12.857Z,64.73
2019-02-06T23:23:14.392Z,43.77
2019-02-06T23:28:15.922Z,52.43
2019-02-06T23:33:17.358Z,80.40
2019-02-06T23:38:18.789Z,55.17
2019-02-06T23:43:20.525Z,105.53
2019-02-06T23:48:22.057Z,57.43
2019-02-06T23:53:23.590Z,44.77
2019-02-06T23:58:25.071Z,70.63
